sensor_id;sensor_type;location;lat;lon;timestamp;pressure;altitude;pressure_sealevel;temperature;humidity
80137;BME280;69466;55.948;37.484;2023-05-07T00:01:56;100630.41;;;-0.14;68.84
80137;BME280;69466;55.948;37.484;2023-05-07T00:04:23;100625.22;;;-0.15;68.65
80137;BME280;69466;55.948;37.484;2023-05-07T00:06:48;100606.63;;;-0.37;68.84
80137;BME280;69466;55.948;37.484;2023-05-07T00:09:17;100618.47;;;-0.30;68.91
80137;BME280;69466;55.948;37.484;2023-05-07T00:11:42;100626.09;;;-0.26;68.82
80137;BME280;69466;55.948;37.484;2023-05-07T00:14:08;100613.63;;;-0.36;69.18
80137;BME280;69466;55.948;37.484;2023-05-07T00:16:34;100634.81;;;-0.24;69.70
80137;BME280;69466;55.948;37.484;2023-05-07T00:19:00;100635.78;;;-0.25;69.33
80137;BME280;69466;55.948;37.484;2023-05-07T00:21:26;100633.38;;;-0.28;69.20
80137;BME280;69466;55.948;37.484;2023-05-07T00:23:53;100632.63;;;-0.30;69.52
80137;BME280;69466;55.948;37.484;2023-05-07T00:26:19;100625.28;;;-0.37;69.14
80137;BME280;69466;55.948;37.484;2023-05-07T00:28:50;100636.88;;;-0.27;69.22
80137;BME280;69466;55.948;37.484;2023-05-07T00:31:15;100637.13;;;-0.30;69.40
80137;BME280;69466;55.948;37.484;2023-05-07T00:33:41;100634.72;;;-0.33;69.97
80137;BME280;69466;55.948;37.484;2023-05-07T00:36:07;100622.38;;;-0.46;69.52
80137;BME280;69466;55.948;37.484;2023-05-07T00:38:33;100622.97;;;-0.42;69.35
80137;BME280;69466;55.948;37.484;2023-05-07T00:40:59;100643.09;;;-0.38;69.50
80137;BME280;69466;55.948;37.484;2023-05-07T00:43:25;100632.06;;;-0.45;70.42
80137;BME280;69466;55.948;37.484;2023-05-07T00:45:51;100622.03;;;-0.52;70.26
80137;BME280;69466;55.948;37.484;2023-05-07T00:48:17;100639.22;;;-0.45;70.51
80137;BME280;69466;55.948;37.484;2023-05-07T00:50:44;100639.34;;;-0.47;70.18
80137;BME280;69466;55.948;37.484;2023-05-07T00:53:11;100617.78;;;-0.55;69.90
80137;BME280;69466;55.948;37.484;2023-05-07T00:55:38;100636.81;;;-0.48;70.44
80137;BME280;69466;55.948;37.484;2023-05-07T00:58:04;100633.53;;;-0.52;70.11
80137;BME280;69466;55.948;37.484;2023-05-07T01:00:30;100637.19;;;-0.53;70.35
80137;BME280;69466;55.948;37.484;2023-05-07T01:02:56;100644.22;;;-0.52;70.29
80137;BME280;69466;55.948;37.484;2023-05-07T01:05:23;100615.41;;;-0.69;70.16
80137;BME280;69466;55.948;37.484;2023-05-07T01:07:50;100645.16;;;-0.53;69.90
80137;BME280;69466;55.948;37.484;2023-05-07T01:10:17;100647.94;;;-0.54;70.92
80137;BME280;69466;55.948;37.484;2023-05-07T01:12:44;100634.13;;;-0.59;71.14
80137;BME280;69466;55.948;37.484;2023-05-07T01:15:11;100638.75;;;-0.61;70.27
80137;BME280;69466;55.948;37.484;2023-05-07T01:17:41;100640.84;;;-0.65;70.06
80137;BME280;69466;55.948;37.484;2023-05-07T01:20:14;100656.69;;;-0.63;70.81
80137;BME280;69466;55.948;37.484;2023-05-07T01:22:42;100643.03;;;-0.70;70.67
80137;BME280;69466;55.948;37.484;2023-05-07T01:25:09;100644.72;;;-0.69;71.45
80137;BME280;69466;55.948;37.484;2023-05-07T01:27:39;100655.38;;;-0.69;70.74
80137;BME280;69466;55.948;37.484;2023-05-07T01:30:06;100659.84;;;-0.69;70.81
80137;BME280;69466;55.948;37.484;2023-05-07T01:35:12;100629.94;;;-0.84;71.00
80137;BME280;69466;55.948;37.484;2023-05-07T01:37:39;100656.81;;;-0.65;70.83
80137;BME280;69466;55.948;37.484;2023-05-07T01:40:07;100654.28;;;-0.66;71.54
80137;BME280;69466;55.948;37.484;2023-05-07T01:42:33;100664.19;;;-0.68;70.85
80137;BME280;69466;55.948;37.484;2023-05-07T01:44:59;100671.13;;;-0.66;71.65
80137;BME280;69466;55.948;37.484;2023-05-07T01:47:26;100664.56;;;-0.62;70.79
80137;BME280;69466;55.948;37.484;2023-05-07T01:49:52;100662.88;;;-0.63;71.18
80137;BME280;69466;55.948;37.484;2023-05-07T01:52:19;100664.19;;;-0.68;70.77
80137;BME280;69466;55.948;37.484;2023-05-07T01:54:45;100670.50;;;-0.58;70.40
80137;BME280;69466;55.948;37.484;2023-05-07T01:57:11;100678.38;;;-0.57;70.59
80137;BME280;69466;55.948;37.484;2023-05-07T01:59:37;100675.59;;;-0.55;70.95
80137;BME280;69466;55.948;37.484;2023-05-07T02:02:03;100679.22;;;-0.56;70.40
80137;BME280;69466;55.948;37.484;2023-05-07T02:04:30;100674.00;;;-0.58;70.77
80137;BME280;69466;55.948;37.484;2023-05-07T02:06:56;100660.94;;;-0.61;70.78
80137;BME280;69466;55.948;37.484;2023-05-07T02:09:22;100669.66;;;-0.59;70.69
80137;BME280;69466;55.948;37.484;2023-05-07T02:11:49;100684.03;;;-0.50;70.38
80137;BME280;69466;55.948;37.484;2023-05-07T02:14:17;100678.59;;;-0.49;70.64
80137;BME280;69466;55.948;37.484;2023-05-07T02:16:44;100696.63;;;-0.41;70.19
80137;BME280;69466;55.948;37.484;2023-05-07T02:19:12;100676.78;;;-0.48;70.12
80137;BME280;69466;55.948;37.484;2023-05-07T02:21:38;100680.66;;;-0.41;69.91
80137;BME280;69466;55.948;37.484;2023-05-07T02:24:05;100706.19;;;-0.27;69.48
80137;BME280;69466;55.948;37.484;2023-05-07T02:26:31;100705.13;;;-0.25;69.87
80137;BME280;69466;55.948;37.484;2023-05-07T02:28:57;100689.72;;;-0.21;69.18
80137;BME280;69466;55.948;37.484;2023-05-07T02:31:24;100683.25;;;0.77;67.22
80137;BME280;69466;55.948;37.484;2023-05-07T02:33:50;100693.91;;;2.08;62.81
80137;BME280;69466;55.948;37.484;2023-05-07T02:36:16;100694.56;;;3.16;60.27
80137;BME280;69466;55.948;37.484;2023-05-07T02:39:00;100698.03;;;4.35;55.42
80137;BME280;69466;55.948;37.484;2023-05-07T02:41:27;100684.97;;;5.27;53.97
80137;BME280;69466;55.948;37.484;2023-05-07T02:43:53;100691.22;;;6.03;51.23
80137;BME280;69466;55.948;37.484;2023-05-07T02:46:19;100690.16;;;6.87;47.78
80137;BME280;69466;55.948;37.484;2023-05-07T02:48:50;100683.00;;;7.81;46.43
80137;BME280;69466;55.948;37.484;2023-05-07T02:51:20;100695.66;;;8.51;44.32
80137;BME280;69466;55.948;37.484;2023-05-07T02:53:46;100699.38;;;8.72;42.09
80137;BME280;69466;55.948;37.484;2023-05-07T02:56:12;100697.47;;;9.18;41.37
80137;BME280;69466;55.948;37.484;2023-05-07T02:58:38;100687.72;;;9.76;40.69
80137;BME280;69466;55.948;37.484;2023-05-07T03:01:09;100695.06;;;10.26;39.30
80137;BME280;69466;55.948;37.484;2023-05-07T03:03:50;100674.34;;;10.40;38.21
80137;BME280;69466;55.948;37.484;2023-05-07T03:06:16;100688.53;;;11.33;37.47
80137;BME280;69466;55.948;37.484;2023-05-07T03:08:42;100701.72;;;10.87;37.42
80137;BME280;69466;55.948;37.484;2023-05-07T03:11:08;100690.28;;;11.75;35.86
80137;BME280;69466;55.948;37.484;2023-05-07T03:13:34;100678.16;;;11.43;35.56
80137;BME280;69466;55.948;37.484;2023-05-07T03:16:00;100697.53;;;12.03;35.61
80137;BME280;69466;55.948;37.484;2023-05-07T03:18:26;100689.13;;;12.45;34.03
80137;BME280;69466;55.948;37.484;2023-05-07T03:20:53;100700.94;;;12.78;33.37
80137;BME280;69466;55.948;37.484;2023-05-07T03:23:18;100704.91;;;12.69;33.73
80137;BME280;69466;55.948;37.484;2023-05-07T03:25:44;100717.28;;;12.98;33.30
80137;BME280;69466;55.948;37.484;2023-05-07T03:28:10;100723.41;;;13.46;31.81
80137;BME280;69466;55.948;37.484;2023-05-07T03:30:42;100714.16;;;13.60;31.44
80137;BME280;69466;55.948;37.484;2023-05-07T03:33:08;100731.16;;;13.56;32.58
80137;BME280;69466;55.948;37.484;2023-05-07T03:35:35;100711.63;;;13.52;31.92
80137;BME280;69466;55.948;37.484;2023-05-07T03:38:01;100706.81;;;13.61;31.52
80137;BME280;69466;55.948;37.484;2023-05-07T03:40:30;100734.47;;;13.77;31.89
80137;BME280;69466;55.948;37.484;2023-05-07T03:42:56;100720.50;;;14.25;30.76
80137;BME280;69466;55.948;37.484;2023-05-07T03:45:25;100729.19;;;14.53;30.54
80137;BME280;69466;55.948;37.484;2023-05-07T03:48:00;100724.06;;;14.70;30.05
80137;BME280;69466;55.948;37.484;2023-05-07T03:50:26;100730.13;;;14.79;29.69
80137;BME280;69466;55.948;37.484;2023-05-07T03:52:51;100739.66;;;14.94;29.35
80137;BME280;69466;55.948;37.484;2023-05-07T03:55:20;100730.03;;;14.92;29.31
80137;BME280;69466;55.948;37.484;2023-05-07T03:57:50;100734.50;;;15.36;28.83
80137;BME280;69466;55.948;37.484;2023-05-07T04:00:17;100738.50;;;15.08;29.50
80137;BME280;69466;55.948;37.484;2023-05-07T04:02:48;100717.44;;;15.40;28.74
80137;BME280;69466;55.948;37.484;2023-05-07T04:05:17;100736.78;;;15.88;28.06
80137;BME280;69466;55.948;37.484;2023-05-07T04:07:45;100726.69;;;15.89;28.14
80137;BME280;69466;55.948;37.484;2023-05-07T04:10:14;100736.78;;;15.70;28.40
80137;BME280;69466;55.948;37.484;2023-05-07T04:12:43;100741.28;;;16.01;27.69
80137;BME280;69466;55.948;37.484;2023-05-07T04:15:13;100729.16;;;16.27;27.13
80137;BME280;69466;55.948;37.484;2023-05-07T04:17:39;100737.63;;;16.25;26.99
80137;BME280;69466;55.948;37.484;2023-05-07T04:20:13;100744.00;;;16.37;27.02
80137;BME280;69466;55.948;37.484;2023-05-07T04:22:39;100743.25;;;16.67;27.17
80137;BME280;69466;55.948;37.484;2023-05-07T04:25:07;100745.47;;;16.58;26.75
80137;BME280;69466;55.948;37.484;2023-05-07T04:27:35;100742.31;;;16.73;26.79
80137;BME280;69466;55.948;37.484;2023-05-07T04:30:03;100748.72;;;16.67;26.30
80137;BME280;69466;55.948;37.484;2023-05-07T04:32:32;100744.25;;;17.25;26.00
80137;BME280;69466;55.948;37.484;2023-05-07T04:34:57;100754.31;;;17.32;25.78
80137;BME280;69466;55.948;37.484;2023-05-07T04:37:25;100745.38;;;17.48;25.52
80137;BME280;69466;55.948;37.484;2023-05-07T04:39:51;100755.31;;;17.60;25.36
80137;BME280;69466;55.948;37.484;2023-05-07T04:42:17;100757.59;;;17.75;25.00
80137;BME280;69466;55.948;37.484;2023-05-07T04:44:44;100755.94;;;17.33;25.09
80137;BME280;69466;55.948;37.484;2023-05-07T04:47:13;100747.97;;;17.43;25.31
80137;BME280;69466;55.948;37.484;2023-05-07T04:49:39;100751.59;;;17.02;25.55
80137;BME280;69466;55.948;37.484;2023-05-07T04:52:05;100752.38;;;17.20;25.06
80137;BME280;69466;55.948;37.484;2023-05-07T04:54:32;100756.31;;;17.24;25.35
80137;BME280;69466;55.948;37.484;2023-05-07T04:56:58;100752.69;;;17.65;24.36
80137;BME280;69466;55.948;37.484;2023-05-07T04:59:24;100751.63;;;17.78;24.51
80137;BME280;69466;55.948;37.484;2023-05-07T05:01:50;100761.28;;;17.92;23.92
80137;BME280;69466;55.948;37.484;2023-05-07T05:04:17;100760.69;;;17.90;24.09
80137;BME280;69466;55.948;37.484;2023-05-07T05:06:43;100764.03;;;17.16;24.84
80137;BME280;69466;55.948;37.484;2023-05-07T05:09:12;100754.09;;;16.73;25.17
80137;BME280;69466;55.948;37.484;2023-05-07T05:11:39;100751.78;;;17.18;24.79
80137;BME280;69466;55.948;37.484;2023-05-07T05:14:06;100759.50;;;17.75;24.27
80137;BME280;69466;55.948;37.484;2023-05-07T05:16:32;100768.72;;;16.86;24.88
80137;BME280;69466;55.948;37.484;2023-05-07T05:18:58;100764.47;;;17.01;24.38
80137;BME280;69466;55.948;37.484;2023-05-07T05:21:29;100760.53;;;16.97;24.12
80137;BME280;69466;55.948;37.484;2023-05-07T05:24:00;100761.44;;;16.43;23.95
80137;BME280;69466;55.948;37.484;2023-05-07T05:26:27;100765.19;;;16.30;24.26
80137;BME280;69466;55.948;37.484;2023-05-07T05:28:54;100770.66;;;15.94;24.82
80137;BME280;69466;55.948;37.484;2023-05-07T05:31:22;100755.66;;;16.15;24.25
80137;BME280;69466;55.948;37.484;2023-05-07T05:33:50;100771.34;;;16.44;23.94
80137;BME280;69466;55.948;37.484;2023-05-07T05:36:16;100757.28;;;16.40;23.83
80137;BME280;69466;55.948;37.484;2023-05-07T05:38:43;100780.41;;;15.34;25.00
80137;BME280;69466;55.948;37.484;2023-05-07T05:41:11;100773.81;;;15.17;25.15
80137;BME280;69466;55.948;37.484;2023-05-07T05:43:37;100780.69;;;15.26;24.81
80137;BME280;69466;55.948;37.484;2023-05-07T05:46:03;100784.41;;;15.31;24.69
80137;BME280;69466;55.948;37.484;2023-05-07T05:48:31;100772.19;;;16.08;23.98
80137;BME280;69466;55.948;37.484;2023-05-07T05:50:58;100778.09;;;16.23;23.46
80137;BME280;69466;55.948;37.484;2023-05-07T05:53:25;100771.56;;;15.63;23.66
80137;BME280;69466;55.948;37.484;2023-05-07T05:55:51;100781.00;;;16.28;23.01
80137;BME280;69466;55.948;37.484;2023-05-07T05:58:17;100780.16;;;16.64;22.62
80137;BME280;69466;55.948;37.484;2023-05-07T06:00:50;100781.78;;;16.35;22.45
80137;BME280;69466;55.948;37.484;2023-05-07T06:03:18;100782.72;;;16.05;22.80
80137;BME280;69466;55.948;37.484;2023-05-07T06:05:45;100789.09;;;14.93;23.62
80137;BME280;69466;55.948;37.484;2023-05-07T06:08:13;100789.03;;;15.31;23.07
80137;BME280;69466;55.948;37.484;2023-05-07T06:10:38;100789.09;;;15.56;22.98
80137;BME280;69466;55.948;37.484;2023-05-07T06:13:07;100785.72;;;15.78;22.57
80137;BME280;69466;55.948;37.484;2023-05-07T06:15:35;100788.84;;;15.82;21.66
80137;BME280;69466;55.948;37.484;2023-05-07T06:18:06;100782.03;;;15.41;21.63
80137;BME280;69466;55.948;37.484;2023-05-07T06:20:32;100780.88;;;14.61;22.68
80137;BME280;69466;55.948;37.484;2023-05-07T06:23:00;100792.06;;;14.47;23.32
80137;BME280;69466;55.948;37.484;2023-05-07T06:25:26;100802.06;;;15.04;22.32
80137;BME280;69466;55.948;37.484;2023-05-07T06:27:52;100786.06;;;15.07;22.24
80137;BME280;69466;55.948;37.484;2023-05-07T06:30:18;100783.50;;;15.13;21.90
80137;BME280;69466;55.948;37.484;2023-05-07T06:32:46;100794.03;;;14.71;22.41
80137;BME280;69466;55.948;37.484;2023-05-07T06:35:15;100786.28;;;15.06;21.85
80137;BME280;69466;55.948;37.484;2023-05-07T06:37:41;100794.44;;;15.69;21.45
80137;BME280;69466;55.948;37.484;2023-05-07T06:40:13;100779.66;;;15.45;21.22
80137;BME280;69466;55.948;37.484;2023-05-07T06:42:39;100792.31;;;14.83;21.95
80137;BME280;69466;55.948;37.484;2023-05-07T06:45:23;100802.72;;;15.31;21.67
80137;BME280;69466;55.948;37.484;2023-05-07T06:47:52;100799.63;;;16.20;20.71
80137;BME280;69466;55.948;37.484;2023-05-07T06:50:18;100786.78;;;16.20;20.60
80137;BME280;69466;55.948;37.484;2023-05-07T06:52:45;100798.03;;;15.94;21.08
80137;BME280;69466;55.948;37.484;2023-05-07T06:55:11;100801.13;;;15.98;21.16
80137;BME280;69466;55.948;37.484;2023-05-07T06:57:38;100803.28;;;16.14;21.49
80137;BME280;69466;55.948;37.484;2023-05-07T07:00:05;100796.94;;;15.95;21.12
80137;BME280;69466;55.948;37.484;2023-05-07T07:02:45;100788.47;;;16.58;20.84
80137;BME280;69466;55.948;37.484;2023-05-07T07:05:18;100797.22;;;16.66;20.79
80137;BME280;69466;55.948;37.484;2023-05-07T07:07:44;100807.13;;;15.63;21.31
80137;BME280;69466;55.948;37.484;2023-05-07T07:10:11;100799.09;;;15.12;21.64
80137;BME280;69466;55.948;37.484;2023-05-07T07:12:36;100801.13;;;15.48;21.30
80137;BME280;69466;55.948;37.484;2023-05-07T07:15:03;100790.94;;;14.99;22.36
80137;BME280;69466;55.948;37.484;2023-05-07T07:17:29;100800.34;;;14.01;23.04
80137;BME280;69466;55.948;37.484;2023-05-07T07:19:56;100779.41;;;13.68;23.23
80137;BME280;69466;55.948;37.484;2023-05-07T07:22:22;100796.19;;;13.32;23.66
80137;BME280;69466;55.948;37.484;2023-05-07T07:24:48;100785.88;;;12.48;24.42
80137;BME280;69466;55.948;37.484;2023-05-07T07:27:17;100815.63;;;12.15;25.09
80137;BME280;69466;55.948;37.484;2023-05-07T07:29:43;100794.88;;;12.07;25.69
80137;BME280;69466;55.948;37.484;2023-05-07T07:32:08;100800.38;;;12.14;25.67
80137;BME280;69466;55.948;37.484;2023-05-07T07:34:34;100811.41;;;11.78;26.31
80137;BME280;69466;55.948;37.484;2023-05-07T07:37:01;100787.81;;;12.19;26.09
80137;BME280;69466;55.948;37.484;2023-05-07T07:39:33;100795.44;;;12.98;24.70
80137;BME280;69466;55.948;37.484;2023-05-07T07:42:00;100794.06;;;13.21;23.68
80137;BME280;69466;55.948;37.484;2023-05-07T07:44:28;100787.03;;;14.31;22.83
80137;BME280;69466;55.948;37.484;2023-05-07T07:47:04;100787.69;;;14.84;21.85
80137;BME280;69466;55.948;37.484;2023-05-07T07:49:31;100790.06;;;14.67;21.77
80137;BME280;69466;55.948;37.484;2023-05-07T07:52:00;100781.91;;;13.83;22.80
80137;BME280;69466;55.948;37.484;2023-05-07T07:54:30;100793.16;;;14.13;22.11
80137;BME280;69466;55.948;37.484;2023-05-07T07:56:57;100782.34;;;13.47;22.90
80137;BME280;69466;55.948;37.484;2023-05-07T07:59:24;100796.38;;;13.31;22.65
80137;BME280;69466;55.948;37.484;2023-05-07T08:01:50;100790.94;;;13.31;22.64
80137;BME280;69466;55.948;37.484;2023-05-07T08:04:19;100783.59;;;13.77;21.91
80137;BME280;69466;55.948;37.484;2023-05-07T08:06:45;100788.81;;;13.66;21.74
80137;BME280;69466;55.948;37.484;2023-05-07T08:09:11;100766.19;;;13.39;21.83
80137;BME280;69466;55.948;37.484;2023-05-07T08:11:40;100781.06;;;13.17;22.83
80137;BME280;69466;55.948;37.484;2023-05-07T08:14:06;100771.72;;;12.72;23.28
80137;BME280;69466;55.948;37.484;2023-05-07T08:16:33;100780.03;;;12.51;24.06
80137;BME280;69466;55.948;37.484;2023-05-07T08:19:02;100770.28;;;12.28;24.32
80137;BME280;69466;55.948;37.484;2023-05-07T08:21:27;100774.25;;;12.26;24.33
80137;BME280;69466;55.948;37.484;2023-05-07T08:23:53;100778.84;;;12.19;24.69
80137;BME280;69466;55.948;37.484;2023-05-07T08:26:19;100782.41;;;11.85;25.11
80137;BME280;69466;55.948;37.484;2023-05-07T08:28:46;100786.28;;;11.48;25.40
80137;BME280;69466;55.948;37.484;2023-05-07T08:31:12;100774.84;;;11.10;25.76
80137;BME280;69466;55.948;37.484;2023-05-07T08:33:40;100796.13;;;11.06;26.03
80137;BME280;69466;55.948;37.484;2023-05-07T08:36:06;100800.59;;;11.35;26.11
80137;BME280;69466;55.948;37.484;2023-05-07T08:38:32;100792.06;;;11.66;25.90
80137;BME280;69466;55.948;37.484;2023-05-07T08:40:58;100786.28;;;12.04;24.87
80137;BME280;69466;55.948;37.484;2023-05-07T08:43:27;100757.50;;;11.60;24.76
80137;BME280;69466;55.948;37.484;2023-05-07T08:45:54;100789.78;;;11.70;25.54
80137;BME280;69466;55.948;37.484;2023-05-07T08:48:25;100784.28;;;11.35;25.88
80137;BME280;69466;55.948;37.484;2023-05-07T08:51:02;100785.91;;;10.87;25.63
80137;BME280;69466;55.948;37.484;2023-05-07T08:53:28;100782.19;;;10.74;25.35
80137;BME280;69466;55.948;37.484;2023-05-07T08:55:55;100790.78;;;10.56;25.43
80137;BME280;69466;55.948;37.484;2023-05-07T08:58:21;100789.88;;;10.49;25.53
80137;BME280;69466;55.948;37.484;2023-05-07T09:00:48;100780.16;;;10.25;25.67
80137;BME280;69466;55.948;37.484;2023-05-07T09:03:15;100779.38;;;10.46;25.82
80137;BME280;69466;55.948;37.484;2023-05-07T09:05:45;100786.31;;;10.84;25.61
80137;BME280;69466;55.948;37.484;2023-05-07T09:08:14;100781.25;;;11.02;25.49
80137;BME280;69466;55.948;37.484;2023-05-07T09:10:41;100781.31;;;11.30;24.41
80137;BME280;69466;55.948;37.484;2023-05-07T09:13:11;100776.31;;;11.34;24.74
80137;BME280;69466;55.948;37.484;2023-05-07T09:15:39;100762.56;;;11.14;25.07
80137;BME280;69466;55.948;37.484;2023-05-07T09:18:06;100765.16;;;11.22;24.59
80137;BME280;69466;55.948;37.484;2023-05-07T09:20:33;100777.09;;;11.28;24.33
80137;BME280;69466;55.948;37.484;2023-05-07T09:23:01;100763.22;;;11.16;24.57
80137;BME280;69466;55.948;37.484;2023-05-07T09:25:30;100771.63;;;11.21;24.18
80137;BME280;69466;55.948;37.484;2023-05-07T09:27:59;100782.09;;;11.03;25.34
80137;BME280;69466;55.948;37.484;2023-05-07T09:30:30;100779.22;;;10.68;25.42
80137;BME280;69466;55.948;37.484;2023-05-07T09:32:59;100778.22;;;10.55;25.65
80137;BME280;69466;55.948;37.484;2023-05-07T09:35:27;100774.22;;;10.51;25.62
80137;BME280;69466;55.948;37.484;2023-05-07T09:37:58;100775.59;;;10.61;25.67
80137;BME280;69466;55.948;37.484;2023-05-07T09:40:30;100761.66;;;10.50;25.85
80137;BME280;69466;55.948;37.484;2023-05-07T09:43:13;100786.00;;;10.58;26.04
80137;BME280;69466;55.948;37.484;2023-05-07T09:45:46;100773.75;;;10.47;26.90
80137;BME280;69466;55.948;37.484;2023-05-07T09:48:21;100753.59;;;9.91;25.57
80137;BME280;69466;55.948;37.484;2023-05-07T09:50:52;100761.06;;;10.04;26.16
80137;BME280;69466;55.948;37.484;2023-05-07T09:53:33;100741.44;;;10.02;25.75
80137;BME280;69466;55.948;37.484;2023-05-07T09:56:02;100759.66;;;10.37;25.72
80137;BME280;69466;55.948;37.484;2023-05-07T09:58:30;100755.47;;;10.35;26.01
80137;BME280;69466;55.948;37.484;2023-05-07T10:00:58;100740.59;;;10.31;25.85
80137;BME280;69466;55.948;37.484;2023-05-07T10:03:24;100748.16;;;10.35;25.88
80137;BME280;69466;55.948;37.484;2023-05-07T10:05:59;100758.75;;;10.30;26.39
80137;BME280;69466;55.948;37.484;2023-05-07T10:08:27;100755.63;;;10.04;27.22
80137;BME280;69466;55.948;37.484;2023-05-07T10:10:56;100745.09;;;9.94;27.18
80137;BME280;69466;55.948;37.484;2023-05-07T10:13:26;100774.81;;;10.02;27.13
80137;BME280;69466;55.948;37.484;2023-05-07T10:15:56;100768.38;;;10.03;27.43
80137;BME280;69466;55.948;37.484;2023-05-07T10:18:30;100758.66;;;9.94;26.91
80137;BME280;69466;55.948;37.484;2023-05-07T10:21:11;100760.59;;;9.86;27.00
80137;BME280;69466;55.948;37.484;2023-05-07T10:23:40;100743.31;;;9.87;27.77
80137;BME280;69466;55.948;37.484;2023-05-07T10:26:08;100766.00;;;10.00;27.22
80137;BME280;69466;55.948;37.484;2023-05-07T10:28:39;100776.41;;;9.97;27.34
80137;BME280;69466;55.948;37.484;2023-05-07T10:34:18;100772.09;;;10.02;28.20
80137;BME280;69466;55.948;37.484;2023-05-07T10:36:47;100776.31;;;10.05;27.82
80137;BME280;69466;55.948;37.484;2023-05-07T10:39:14;100771.09;;;10.03;27.82
80137;BME280;69466;55.948;37.484;2023-05-07T10:41:40;100771.44;;;10.00;27.18
80137;BME280;69466;55.948;37.484;2023-05-07T10:44:07;100772.78;;;10.19;27.42
80137;BME280;69466;55.948;37.484;2023-05-07T10:46:35;100779.22;;;10.18;27.24
80137;BME280;69466;55.948;37.484;2023-05-07T10:49:09;100774.91;;;10.23;27.62
80137;BME280;69466;55.948;37.484;2023-05-07T10:52:17;100776.44;;;10.26;27.31
80137;BME280;69466;55.948;37.484;2023-05-07T10:57:48;100769.84;;;9.91;28.24
80137;BME280;69466;55.948;37.484;2023-05-07T11:03:06;100770.41;;;9.87;27.96
80137;BME280;69466;55.948;37.484;2023-05-07T11:06:16;100756.28;;;10.06;27.75
80137;BME280;69466;55.948;37.484;2023-05-07T11:09:05;100760.31;;;10.10;28.22
80137;BME280;69466;55.948;37.484;2023-05-07T11:11:54;100731.78;;;9.99;27.21
80137;BME280;69466;55.948;37.484;2023-05-07T11:14:44;100741.50;;;10.08;27.39
80137;BME280;69466;55.948;37.484;2023-05-07T11:17:22;100780.72;;;10.20;27.79
80137;BME280;69466;55.948;37.484;2023-05-07T11:19:56;100760.81;;;9.99;27.44
80137;BME280;69466;55.948;37.484;2023-05-07T11:22:40;100738.25;;;9.84;28.10
80137;BME280;69466;55.948;37.484;2023-05-07T11:25:26;100738.63;;;9.66;28.73
80137;BME280;69466;55.948;37.484;2023-05-07T11:28:06;100755.66;;;9.89;28.90
80137;BME280;69466;55.948;37.484;2023-05-07T11:30:42;100770.97;;;9.82;29.19
80137;BME280;69466;55.948;37.484;2023-05-07T11:33:10;100753.88;;;9.67;29.02
80137;BME280;69466;55.948;37.484;2023-05-07T11:35:37;100776.31;;;9.75;29.04
80137;BME280;69466;55.948;37.484;2023-05-07T11:38:06;100769.84;;;9.91;29.41
80137;BME280;69466;55.948;37.484;2023-05-07T11:40:34;100743.03;;;9.67;28.83
80137;BME280;69466;55.948;37.484;2023-05-07T11:43:10;100741.06;;;9.75;28.24
80137;BME280;69466;55.948;37.484;2023-05-07T11:45:36;100772.47;;;10.14;27.45
80137;BME280;69466;55.948;37.484;2023-05-07T11:48:05;100744.88;;;10.10;26.76
80137;BME280;69466;55.948;37.484;2023-05-07T11:50:35;100766.66;;;10.32;26.18
80137;BME280;69466;55.948;37.484;2023-05-07T11:53:07;100764.63;;;10.19;27.13
80137;BME280;69466;55.948;37.484;2023-05-07T11:55:33;100778.19;;;10.19;26.86
80137;BME280;69466;55.948;37.484;2023-05-07T11:57:59;100783.13;;;10.01;27.07
80137;BME280;69466;55.948;37.484;2023-05-07T12:00:25;100775.28;;;9.91;27.48
80137;BME280;69466;55.948;37.484;2023-05-07T12:02:51;100755.16;;;9.86;27.50
80137;BME280;69466;55.948;37.484;2023-05-07T12:05:17;100738.09;;;9.70;27.40
80137;BME280;69466;55.948;37.484;2023-05-07T12:07:56;100761.06;;;10.04;27.67
80137;BME280;69466;55.948;37.484;2023-05-07T12:10:21;100747.88;;;10.01;27.47
80137;BME280;69466;55.948;37.484;2023-05-07T12:12:47;100757.88;;;9.86;27.96
80137;BME280;69466;55.948;37.484;2023-05-07T12:15:17;100769.38;;;9.73;27.52
80137;BME280;69466;55.948;37.484;2023-05-07T12:17:43;100744.97;;;9.44;27.44
80137;BME280;69466;55.948;37.484;2023-05-07T12:20:10;100764.84;;;9.36;27.89
80137;BME280;69466;55.948;37.484;2023-05-07T12:22:36;100773.94;;;9.43;28.22
80137;BME280;69466;55.948;37.484;2023-05-07T12:25:06;100770.38;;;9.43;28.75
80137;BME280;69466;55.948;37.484;2023-05-07T12:27:32;100770.72;;;9.25;28.74
80137;BME280;69466;55.948;37.484;2023-05-07T12:30:02;100758.56;;;9.21;28.71
80137;BME280;69466;55.948;37.484;2023-05-07T12:32:29;100749.59;;;9.20;28.84
80137;BME280;69466;55.948;37.484;2023-05-07T12:34:58;100725.81;;;9.08;28.45
80137;BME280;69466;55.948;37.484;2023-05-07T12:37:25;100746.94;;;9.12;28.74
80137;BME280;69466;55.948;37.484;2023-05-07T12:40:11;100746.72;;;9.37;28.79
80137;BME280;69466;55.948;37.484;2023-05-07T12:42:39;100749.72;;;9.42;28.60
80137;BME280;69466;55.948;37.484;2023-05-07T12:45:13;100734.22;;;9.50;28.32
80137;BME280;69466;55.948;37.484;2023-05-07T12:47:47;100743.38;;;9.64;28.26
80137;BME280;69466;55.948;37.484;2023-05-07T12:50:14;100725.00;;;9.74;27.43
80137;BME280;69466;55.948;37.484;2023-05-07T12:52:41;100752.19;;;9.95;28.03
80137;BME280;69466;55.948;37.484;2023-05-07T12:55:11;100746.13;;;10.08;27.31
80137;BME280;69466;55.948;37.484;2023-05-07T12:57:39;100741.44;;;9.87;27.12
80137;BME280;69466;55.948;37.484;2023-05-07T13:00:07;100744.03;;;9.95;26.99
80137;BME280;69466;55.948;37.484;2023-05-07T13:02:41;100751.34;;;9.95;26.81